DLH256 LRIA-LRTR
Flight info
| Callsign | DLH256 |
|---|---|
| Flight time | 0h 53m |
| Altitude | 36000 |
| Route | ABOLO2B ABOLO DCT DOKUD DCT VASIS VASIS2A |
| Aircraft | A320/M-VGD/A |
Departure
| Time | 2026-04-22 16:34 |
|---|---|
| Airport | Iaşi International Airport (LRIA) |
Arrival
| Time | 2026-04-22 17:28 |
|---|---|
| Airport | Timișoara Traian Vuia International Airport (LRTR) |
| Time | Latitude | Longitude | Altitude | Speed | Heading |
|---|---|---|---|---|---|
| 2026-04-22 16:03 | 47.17725 | 27.61848 | 377 ft | 0 kts | 235° |
| 2026-04-22 16:26 | 47.17729 | 27.61860 | 377 ft | 4 kts | 198° |
| 2026-04-22 16:27 | 47.17742 | 27.61853 | 378 ft | 4 kts | 151° |
| 2026-04-22 16:27 | 47.17749 | 27.61847 | 378 ft | 0 kts | 156° |
| 2026-04-22 16:30 | 47.17745 | 27.61849 | 378 ft | 4 kts | 156° |
| 2026-04-22 16:30 | 47.17707 | 27.61889 | 376 ft | 0 kts | 142° |
| 2026-04-22 16:30 | 47.17709 | 27.61901 | 376 ft | 4 kts | 79° |
| 2026-04-22 16:30 | 47.17768 | 27.61969 | 377 ft | 13 kts | 60° |
| 2026-04-22 16:31 | 47.17825 | 27.62134 | 375 ft | 21 kts | 64° |
| 2026-04-22 16:31 | 47.17795 | 27.62291 | 371 ft | 20 kts | 150° |
| 2026-04-22 16:31 | 47.17635 | 27.62433 | 370 ft | 33 kts | 149° |
| 2026-04-22 16:31 | 47.17431 | 27.62612 | 365 ft | 35 kts | 148° |
| 2026-04-22 16:32 | 47.17230 | 27.62793 | 359 ft | 19 kts | 146° |
| 2026-04-22 16:32 | 47.17149 | 27.62939 | 356 ft | 15 kts | 151° |
| 2026-04-22 16:32 | 47.17138 | 27.62872 | 356 ft | 9 kts | 339° |
| 2026-04-22 16:32 | 47.17161 | 27.62855 | 355 ft | 0 kts | 328° |
| 2026-04-22 16:34 | 47.17320 | 27.62711 | 365 ft | 65 kts | 329° |
| 2026-04-22 16:34 | 47.17922 | 27.62184 | 376 ft | 133 kts | 328° |
| 2026-04-22 16:34 | 47.18835 | 27.61373 | 659 ft | 164 kts | 328° |
| 2026-04-22 16:34 | 47.19831 | 27.60574 | 1459 ft | 164 kts | 334° |
| 2026-04-22 16:35 | 47.20913 | 27.59773 | 1838 ft | 187 kts | 334° |
| 2026-04-22 16:35 | 47.22142 | 27.58871 | 2431 ft | 205 kts | 334° |
| 2026-04-22 16:35 | 47.23438 | 27.57912 | 3326 ft | 210 kts | 333° |
| 2026-04-22 16:35 | 47.24540 | 27.56516 | 4224 ft | 216 kts | 300° |
| 2026-04-22 16:36 | 47.24843 | 27.54339 | 5121 ft | 226 kts | 265° |
| 2026-04-22 16:36 | 47.24216 | 27.52195 | 5911 ft | 238 kts | 233° |
| 2026-04-22 16:36 | 47.22788 | 27.50898 | 6338 ft | 257 kts | 192° |
| 2026-04-22 16:36 | 47.20980 | 27.50846 | 7026 ft | 264 kts | 175° |
| 2026-04-22 16:37 | 47.19145 | 27.51185 | 7764 ft | 268 kts | 172° |
| 2026-04-22 16:37 | 47.17281 | 27.51462 | 8478 ft | 271 kts | 186° |
| 2026-04-22 16:37 | 47.15469 | 27.50671 | 8943 ft | 280 kts | 216° |
| 2026-04-22 16:37 | 47.13870 | 27.48953 | 9529 ft | 288 kts | 221° |
| 2026-04-22 16:38 | 47.12270 | 27.47139 | 10267 ft | 296 kts | 221° |
| 2026-04-22 16:38 | 47.10580 | 27.45201 | 10545 ft | 320 kts | 221° |
| 2026-04-22 16:38 | 47.08779 | 27.43135 | 10982 ft | 335 kts | 221° |
| 2026-04-22 16:38 | 47.06916 | 27.41020 | 11685 ft | 341 kts | 220° |
| 2026-04-22 16:39 | 47.05022 | 27.38887 | 12427 ft | 346 kts | 220° |
| 2026-04-22 16:39 | 47.03096 | 27.36727 | 13191 ft | 350 kts | 220° |
| 2026-04-22 16:39 | 47.01298 | 27.34317 | 13907 ft | 352 kts | 231° |
| 2026-04-22 16:39 | 46.99896 | 27.31436 | 14518 ft | 353 kts | 244° |
| 2026-04-22 16:40 | 46.98921 | 27.28092 | 15141 ft | 354 kts | 255° |
| 2026-04-22 16:40 | 46.98207 | 27.24653 | 15745 ft | 359 kts | 255° |
| 2026-04-22 16:40 | 46.96764 | 27.17880 | 18104 ft | 329 kts | 255° |
| 2026-04-22 16:41 | 46.96096 | 27.14793 | 19366 ft | 308 kts | 255° |
| 2026-04-22 16:41 | 46.95462 | 27.11847 | 20271 ft | 300 kts | 255° |
| 2026-04-22 16:41 | 46.94840 | 27.08931 | 20915 ft | 301 kts | 255° |
| 2026-04-22 16:41 | 46.94219 | 27.06005 | 21522 ft | 302 kts | 256° |
| 2026-04-22 16:42 | 46.93592 | 27.03054 | 22064 ft | 305 kts | 255° |
| 2026-04-22 16:42 | 46.92957 | 27.00080 | 22633 ft | 307 kts | 255° |
| 2026-04-22 16:42 | 46.92312 | 26.97078 | 23175 ft | 310 kts | 255° |
| 2026-04-22 16:42 | 46.91662 | 26.94058 | 23735 ft | 312 kts | 255° |
| 2026-04-22 16:43 | 46.91008 | 26.91014 | 24157 ft | 315 kts | 255° |
| 2026-04-22 16:43 | 46.90347 | 26.87948 | 24598 ft | 318 kts | 255° |
| 2026-04-22 16:43 | 46.89678 | 26.84854 | 25040 ft | 321 kts | 256° |
| 2026-04-22 16:43 | 46.89005 | 26.81732 | 25473 ft | 323 kts | 256° |
| 2026-04-22 16:44 | 46.88326 | 26.78594 | 25910 ft | 325 kts | 256° |
| 2026-04-22 16:44 | 46.87639 | 26.75424 | 26326 ft | 328 kts | 256° |
| 2026-04-22 16:44 | 46.86945 | 26.72234 | 26737 ft | 331 kts | 256° |
| 2026-04-22 16:44 | 46.86263 | 26.69015 | 27156 ft | 333 kts | 257° |
| 2026-04-22 16:45 | 46.85630 | 26.65796 | 27552 ft | 335 kts | 258° |
| 2026-04-22 16:45 | 46.85008 | 26.62498 | 27961 ft | 338 kts | 258° |
| 2026-04-22 16:45 | 46.84389 | 26.59177 | 28349 ft | 340 kts | 258° |
| 2026-04-22 16:45 | 46.83761 | 26.55828 | 28756 ft | 343 kts | 258° |
| 2026-04-22 16:46 | 46.83123 | 26.52465 | 29157 ft | 345 kts | 258° |
| 2026-04-22 16:46 | 46.82474 | 26.49071 | 29534 ft | 348 kts | 258° |
| 2026-04-22 16:46 | 46.81821 | 26.45659 | 29935 ft | 350 kts | 257° |
| 2026-04-22 16:46 | 46.81161 | 26.42223 | 30296 ft | 353 kts | 257° |
| 2026-04-22 16:47 | 46.80494 | 26.38761 | 30602 ft | 355 kts | 257° |
| 2026-04-22 16:47 | 46.79817 | 26.35269 | 30925 ft | 358 kts | 257° |
| 2026-04-22 16:47 | 46.79365 | 26.32951 | 31142 ft | 359 kts | 257° |
| 2026-04-22 16:47 | 46.78448 | 26.28236 | 31536 ft | 363 kts | 257° |
| 2026-04-22 16:48 | 46.77754 | 26.24676 | 31850 ft | 366 kts | 257° |
| 2026-04-22 16:48 | 46.77061 | 26.21129 | 32165 ft | 368 kts | 257° |
| 2026-04-22 16:48 | 46.76355 | 26.17529 | 32471 ft | 371 kts | 257° |
| 2026-04-22 16:48 | 46.75643 | 26.13898 | 32753 ft | 374 kts | 257° |
| 2026-04-22 16:49 | 46.74926 | 26.10242 | 33073 ft | 376 kts | 257° |
| 2026-04-22 16:49 | 46.74203 | 26.06563 | 33372 ft | 378 kts | 257° |
| 2026-04-22 16:49 | 46.73472 | 26.02859 | 33611 ft | 382 kts | 257° |
| 2026-04-22 16:49 | 46.72734 | 25.99125 | 33851 ft | 385 kts | 257° |
| 2026-04-22 16:50 | 46.71991 | 25.95360 | 34097 ft | 388 kts | 256° |
| 2026-04-22 16:50 | 46.71245 | 25.91584 | 34355 ft | 389 kts | 256° |
| 2026-04-22 16:50 | 46.70492 | 25.87792 | 34595 ft | 390 kts | 256° |
| 2026-04-22 16:50 | 46.69733 | 25.83984 | 34795 ft | 393 kts | 256° |
| 2026-04-22 16:51 | 46.68970 | 25.80159 | 35014 ft | 394 kts | 256° |
| 2026-04-22 16:51 | 46.68203 | 25.76311 | 35207 ft | 396 kts | 256° |
| 2026-04-22 16:51 | 46.67432 | 25.72448 | 35430 ft | 398 kts | 256° |
| 2026-04-22 16:51 | 46.66653 | 25.68566 | 35644 ft | 400 kts | 256° |
| 2026-04-22 16:52 | 46.65880 | 25.64719 | 35824 ft | 402 kts | 256° |
| 2026-04-22 16:52 | 46.65093 | 25.60806 | 35988 ft | 405 kts | 256° |
| 2026-04-22 16:52 | 46.64298 | 25.56849 | 36040 ft | 411 kts | 256° |
| 2026-04-22 16:53 | 46.62660 | 25.48732 | 36034 ft | 425 kts | 256° |
| 2026-04-22 16:53 | 46.60963 | 25.40360 | 36037 ft | 438 kts | 255° |
| 2026-04-22 16:54 | 46.59219 | 25.31806 | 36032 ft | 443 kts | 255° |
| 2026-04-22 16:54 | 46.57451 | 25.23206 | 36034 ft | 444 kts | 255° |
| 2026-04-22 16:55 | 46.55681 | 25.14619 | 36030 ft | 444 kts | 255° |
| 2026-04-22 16:55 | 46.53901 | 25.06034 | 36032 ft | 444 kts | 255° |
| 2026-04-22 16:56 | 46.52133 | 24.97499 | 36025 ft | 444 kts | 255° |
| 2026-04-22 16:56 | 46.50351 | 24.88921 | 36013 ft | 444 kts | 255° |
| 2026-04-22 16:57 | 46.48555 | 24.80332 | 36017 ft | 444 kts | 255° |
| 2026-04-22 16:57 | 46.46749 | 24.71746 | 36015 ft | 445 kts | 255° |
| 2026-04-22 16:58 | 46.45248 | 24.64624 | 36014 ft | 445 kts | 255° |
| 2026-04-22 16:58 | 46.43124 | 24.54600 | 36015 ft | 445 kts | 255° |
| 2026-04-22 16:59 | 46.41301 | 24.46027 | 36017 ft | 445 kts | 255° |
| 2026-04-22 16:59 | 46.39475 | 24.37507 | 36018 ft | 446 kts | 254° |
| 2026-04-22 17:00 | 46.37645 | 24.28982 | 36023 ft | 446 kts | 254° |
| 2026-04-22 17:00 | 46.34870 | 24.16093 | 36032 ft | 447 kts | 254° |
| 2026-04-22 17:01 | 46.33007 | 24.07492 | 36036 ft | 447 kts | 254° |
| 2026-04-22 17:01 | 46.31137 | 23.98893 | 34818 ft | 456 kts | 254° |
| 2026-04-22 17:02 | 46.30172 | 23.94453 | 33026 ft | 468 kts | 254° |
| 2026-04-22 17:02 | 46.29198 | 23.89991 | 31370 ft | 473 kts | 254° |
| 2026-04-22 17:02 | 46.28200 | 23.85449 | 29697 ft | 474 kts | 254° |
| 2026-04-22 17:02 | 46.27197 | 23.80900 | 27763 ft | 475 kts | 254° |
| 2026-04-22 17:03 | 46.26192 | 23.76343 | 25769 ft | 477 kts | 254° |
| 2026-04-22 17:03 | 46.25183 | 23.71779 | 24091 ft | 475 kts | 253° |
| 2026-04-22 17:03 | 46.24192 | 23.67315 | 22794 ft | 459 kts | 253° |
| 2026-04-22 17:03 | 46.23225 | 23.62978 | 21385 ft | 448 kts | 253° |
| 2026-04-22 17:04 | 46.22595 | 23.60158 | 20473 ft | 442 kts | 253° |
| 2026-04-22 17:04 | 46.21347 | 23.54576 | 18725 ft | 431 kts | 254° |
| 2026-04-22 17:04 | 46.20437 | 23.50490 | 17363 ft | 423 kts | 254° |
| 2026-04-22 17:04 | 46.19543 | 23.46478 | 16033 ft | 415 kts | 254° |
| 2026-04-22 17:05 | 46.18666 | 23.42553 | 14775 ft | 407 kts | 253° |
| 2026-04-22 17:05 | 46.17812 | 23.38747 | 13515 ft | 400 kts | 254° |
| 2026-04-22 17:05 | 46.16966 | 23.34983 | 12539 ft | 386 kts | 254° |
| 2026-04-22 17:05 | 46.16165 | 23.31431 | 12204 ft | 358 kts | 254° |
| 2026-04-22 17:06 | 46.15422 | 23.28152 | 12032 ft | 330 kts | 254° |
| 2026-04-22 17:06 | 46.14733 | 23.25105 | 11986 ft | 313 kts | 254° |
| 2026-04-22 17:06 | 46.14067 | 23.22144 | 11990 ft | 310 kts | 254° |
| 2026-04-22 17:06 | 46.13406 | 23.19197 | 11995 ft | 309 kts | 254° |
| 2026-04-22 17:07 | 46.12743 | 23.16253 | 11992 ft | 309 kts | 254° |
| 2026-04-22 17:07 | 46.12076 | 23.13313 | 11995 ft | 309 kts | 254° |
| 2026-04-22 17:07 | 46.11405 | 23.10371 | 11994 ft | 309 kts | 254° |
| 2026-04-22 17:07 | 46.10736 | 23.07434 | 11992 ft | 309 kts | 254° |
| 2026-04-22 17:08 | 46.10293 | 23.05485 | 11992 ft | 309 kts | 254° |
| 2026-04-22 17:08 | 46.09406 | 23.01593 | 11994 ft | 309 kts | 254° |
| 2026-04-22 17:08 | 46.08734 | 22.98659 | 11991 ft | 309 kts | 254° |
| 2026-04-22 17:08 | 46.08059 | 22.95718 | 11991 ft | 309 kts | 254° |
| 2026-04-22 17:09 | 46.07384 | 22.92780 | 11989 ft | 309 kts | 254° |
| 2026-04-22 17:09 | 46.06928 | 22.90789 | 11990 ft | 310 kts | 254° |
| 2026-04-22 17:09 | 46.06261 | 22.87883 | 11993 ft | 310 kts | 254° |
| 2026-04-22 17:09 | 46.05584 | 22.84935 | 11990 ft | 310 kts | 254° |
| 2026-04-22 17:10 | 46.04906 | 22.81992 | 11990 ft | 310 kts | 254° |
| 2026-04-22 17:10 | 46.04224 | 22.79043 | 11995 ft | 310 kts | 254° |
| 2026-04-22 17:10 | 46.03544 | 22.76100 | 11991 ft | 310 kts | 253° |
| 2026-04-22 17:10 | 46.02864 | 22.73155 | 11992 ft | 311 kts | 253° |
| 2026-04-22 17:11 | 46.02181 | 22.70205 | 11994 ft | 311 kts | 253° |
| 2026-04-22 17:11 | 46.01496 | 22.67254 | 11996 ft | 311 kts | 253° |
| 2026-04-22 17:11 | 46.00811 | 22.64304 | 11997 ft | 311 kts | 253° |
| 2026-04-22 17:11 | 46.00123 | 22.61348 | 11996 ft | 311 kts | 253° |
| 2026-04-22 17:12 | 45.99436 | 22.58401 | 11989 ft | 311 kts | 253° |
| 2026-04-22 17:12 | 45.98758 | 22.55493 | 11994 ft | 311 kts | 253° |
| 2026-04-22 17:12 | 45.98070 | 22.52548 | 11996 ft | 311 kts | 253° |
| 2026-04-22 17:12 | 45.97380 | 22.49599 | 11992 ft | 311 kts | 253° |
| 2026-04-22 17:13 | 45.96689 | 22.46657 | 11996 ft | 311 kts | 253° |
| 2026-04-22 17:13 | 45.95997 | 22.43711 | 11999 ft | 311 kts | 253° |
| 2026-04-22 17:13 | 45.95347 | 22.40749 | 12001 ft | 310 kts | 258° |
| 2026-04-22 17:13 | 45.94952 | 22.37710 | 12005 ft | 310 kts | 262° |
| 2026-04-22 17:14 | 45.94596 | 22.34650 | 12003 ft | 310 kts | 262° |
| 2026-04-22 17:14 | 45.94238 | 22.31601 | 12002 ft | 309 kts | 262° |
| 2026-04-22 17:14 | 45.93879 | 22.28555 | 11999 ft | 309 kts | 262° |
| 2026-04-22 17:14 | 45.93519 | 22.25504 | 11998 ft | 310 kts | 262° |
| 2026-04-22 17:15 | 45.93278 | 22.23481 | 11993 ft | 310 kts | 262° |
| 2026-04-22 17:15 | 45.92792 | 22.19415 | 11539 ft | 308 kts | 262° |
| 2026-04-22 17:15 | 45.92430 | 22.16390 | 11158 ft | 306 kts | 262° |
| 2026-04-22 17:15 | 45.92074 | 22.13421 | 10788 ft | 305 kts | 262° |
| 2026-04-22 17:16 | 45.91714 | 22.10428 | 10419 ft | 303 kts | 262° |
| 2026-04-22 17:16 | 45.91354 | 22.07451 | 10045 ft | 302 kts | 262° |
| 2026-04-22 17:16 | 45.90999 | 22.04515 | 9844 ft | 293 kts | 262° |
| 2026-04-22 17:16 | 45.90651 | 22.01662 | 9557 ft | 288 kts | 262° |
| 2026-04-22 17:17 | 45.90304 | 21.98842 | 9195 ft | 286 kts | 262° |
| 2026-04-22 17:17 | 45.89963 | 21.96080 | 9035 ft | 273 kts | 262° |
| 2026-04-22 17:17 | 45.89640 | 21.93458 | 8650 ft | 263 kts | 263° |
| 2026-04-22 17:17 | 45.89327 | 21.90893 | 8115 ft | 259 kts | 263° |
| 2026-04-22 17:18 | 45.89092 | 21.88329 | 7728 ft | 257 kts | 271° |
| 2026-04-22 17:18 | 45.89211 | 21.85797 | 7396 ft | 252 kts | 283° |
| 2026-04-22 17:18 | 45.89673 | 21.83423 | 7047 ft | 249 kts | 294° |
| 2026-04-22 17:18 | 45.90277 | 21.81100 | 6669 ft | 248 kts | 293° |
| 2026-04-22 17:19 | 45.90225 | 21.76226 | 5980 ft | 255 kts | 246° |
| 2026-04-22 17:19 | 45.87584 | 21.72977 | 5243 ft | 259 kts | 200° |
| 2026-04-22 17:20 | 45.84091 | 21.72212 | 4524 ft | 256 kts | 165° |
| 2026-04-22 17:20 | 45.81206 | 21.74924 | 3559 ft | 257 kts | 132° |
| 2026-04-22 17:21 | 45.79681 | 21.76318 | 3096 ft | 266 kts | 162° |
| 2026-04-22 17:21 | 45.76077 | 21.75554 | 3002 ft | 272 kts | 205° |
| 2026-04-22 17:22 | 45.73215 | 21.72279 | 3003 ft | 266 kts | 249° |
| 2026-04-22 17:22 | 45.72756 | 21.69748 | 3009 ft | 263 kts | 264° |
| 2026-04-22 17:22 | 45.72282 | 21.64645 | 3003 ft | 246 kts | 266° |
| 2026-04-22 17:23 | 45.72225 | 21.62326 | 3085 ft | 220 kts | 287° |
| 2026-04-22 17:23 | 45.74030 | 21.59272 | 3023 ft | 203 kts | 316° |
| 2026-04-22 17:23 | 45.74833 | 21.57629 | 3017 ft | 201 kts | 301° |
| 2026-04-22 17:24 | 45.75387 | 21.55827 | 3006 ft | 192 kts | 295° |
| 2026-04-22 17:24 | 45.75844 | 21.54094 | 2967 ft | 180 kts | 294° |
| 2026-04-22 17:24 | 45.76269 | 21.52433 | 2805 ft | 176 kts | 294° |
| 2026-04-22 17:24 | 45.76684 | 21.50802 | 2581 ft | 173 kts | 294° |
| 2026-04-22 17:25 | 45.77095 | 21.49186 | 2359 ft | 172 kts | 294° |
| 2026-04-22 17:25 | 45.77495 | 21.47605 | 2143 ft | 164 kts | 294° |
| 2026-04-22 17:25 | 45.77866 | 21.46135 | 1930 ft | 149 kts | 294° |
| 2026-04-22 17:25 | 45.78208 | 21.44782 | 1718 ft | 140 kts | 294° |
| 2026-04-22 17:26 | 45.78533 | 21.43498 | 1519 ft | 134 kts | 295° |
| 2026-04-22 17:26 | 45.78840 | 21.42285 | 1334 ft | 128 kts | 294° |
| 2026-04-22 17:26 | 45.79150 | 21.41060 | 1162 ft | 134 kts | 293° |
| 2026-04-22 17:26 | 45.79468 | 21.39804 | 970 ft | 134 kts | 293° |
| 2026-04-22 17:27 | 45.79782 | 21.38560 | 780 ft | 133 kts | 291° |
| 2026-04-22 17:27 | 45.80098 | 21.37306 | 612 ft | 134 kts | 291° |
| 2026-04-22 17:27 | 45.80414 | 21.36053 | 425 ft | 133 kts | 291° |
| 2026-04-22 17:27 | 45.80706 | 21.34892 | 355 ft | 90 kts | 290° |
| 2026-04-22 17:28 | 45.80878 | 21.34227 | 354 ft | 62 kts | 289° |
| 2026-04-22 17:28 | 45.81008 | 21.33694 | 352 ft | 52 kts | 290° |
| 2026-04-22 17:28 | 45.81124 | 21.33235 | 355 ft | 48 kts | 289° |
| 2026-04-22 17:28 | 45.81234 | 21.32792 | 359 ft | 46 kts | 289° |
| 2026-04-22 17:29 | 45.81332 | 21.32401 | 363 ft | 32 kts | 290° |
| 2026-04-22 17:29 | 45.81369 | 21.32167 | 359 ft | 14 kts | 244° |
| 2026-04-22 17:29 | 45.81301 | 21.32118 | 358 ft | 9 kts | 200° |
| 2026-04-22 17:29 | 45.81242 | 21.32088 | 352 ft | 9 kts | 200° |
| 2026-04-22 17:30 | 45.81167 | 21.32042 | 360 ft | 14 kts | 218° |
| 2026-04-22 17:30 | 45.81129 | 21.31981 | 354 ft | 0 kts | 222° |
| 2026-04-22 17:30 | 45.81125 | 21.31977 | 357 ft | 0 kts | 222° |